createdAt,value
2023-07-18T00:01:36.520Z,1.33
2023-07-18T00:04:04.323Z,1.83
2023-07-18T00:06:31.667Z,1.17
2023-07-18T00:08:59.021Z,1.40
2023-07-18T00:11:26.596Z,1.38
2023-07-18T00:13:53.962Z,1.20
2023-07-18T00:16:21.509Z,1.23
2023-07-18T00:18:51.989Z,1.52
2023-07-18T00:21:21.534Z,1.23
2023-07-18T00:23:51.245Z,1.65
2023-07-18T00:26:19.704Z,1.60
2023-07-18T00:28:48.577Z,1.45
2023-07-18T00:31:16.903Z,1.67
2023-07-18T00:33:44.677Z,1.40
2023-07-18T00:36:12.790Z,1.63
2023-07-18T00:38:40.284Z,1.67
2023-07-18T00:41:12.439Z,1.30
2023-07-18T00:43:40.728Z,1.40
2023-07-18T00:46:10.852Z,1.52
2023-07-18T00:48:38.419Z,1.40
2023-07-18T00:51:05.960Z,0.95
2023-07-18T00:53:36.063Z,1.55
2023-07-18T00:56:04.757Z,1.52
2023-07-18T00:58:32.595Z,1.67
2023-07-18T01:01:03.833Z,1.20
2023-07-18T01:03:31.961Z,1.80
2023-07-18T01:05:59.762Z,1.05
2023-07-18T01:08:27.231Z,1.27
2023-07-18T01:10:54.613Z,1.33
2023-07-18T01:13:22.026Z,2.03
2023-07-18T01:15:51.908Z,1.20
2023-07-18T01:18:20.040Z,1.67
2023-07-18T01:20:48.068Z,1.45
2023-07-18T01:23:15.922Z,2.03
2023-07-18T01:25:43.780Z,1.27
2023-07-18T01:28:12.070Z,1.42
2023-07-18T01:30:39.625Z,1.40
2023-07-18T01:33:07.904Z,1.67
2023-07-18T01:35:35.464Z,1.63
2023-07-18T01:38:02.940Z,0.98
2023-07-18T01:40:30.404Z,1.45
2023-07-18T01:42:58.722Z,1.45
2023-07-18T01:45:30.916Z,1.10
2023-07-18T01:48:11.719Z,1.80
2023-07-18T01:50:40.585Z,1.58
2023-07-18T01:53:08.028Z,1.48
2023-07-18T01:55:35.412Z,1.45
2023-07-18T01:58:02.828Z,1.30
2023-07-18T02:00:32.097Z,1.40
2023-07-18T02:03:01.184Z,1.30
2023-07-18T02:05:31.756Z,1.45
2023-07-18T02:07:59.387Z,1.30
2023-07-18T02:10:27.380Z,1.60
2023-07-18T02:12:58.648Z,1.70
2023-07-18T02:15:26.258Z,1.02
2023-07-18T02:17:54.565Z,1.58
2023-07-18T02:20:21.949Z,1.40
2023-07-18T02:22:50.025Z,1.77
2023-07-18T02:25:18.487Z,1.23
2023-07-18T02:27:46.480Z,1.52
2023-07-18T02:30:15.819Z,1.65
2023-07-18T02:32:44.377Z,1.67
2023-07-18T02:35:16.412Z,1.33
2023-07-18T02:37:44.035Z,1.25
2023-07-18T02:40:12.731Z,1.73
2023-07-18T02:42:41.791Z,1.23
2023-07-18T02:45:11.813Z,1.60
2023-07-18T02:47:40.584Z,1.92
2023-07-18T02:50:10.449Z,1.75
2023-07-18T02:52:39.470Z,1.52
2023-07-18T02:55:07.772Z,1.25
2023-07-18T02:57:36.198Z,1.35
2023-07-18T03:00:08.713Z,1.42
2023-07-18T03:02:36.749Z,1.67
2023-07-18T03:05:23.442Z,1.70
2023-07-18T03:07:53.035Z,1.73
2023-07-18T03:10:21.932Z,1.50
2023-07-18T03:12:50.866Z,1.77
2023-07-18T03:15:22.486Z,1.80
2023-07-18T03:17:51.785Z,1.80
2023-07-18T03:20:21.320Z,1.20
2023-07-18T03:22:52.180Z,1.42
2023-07-18T03:25:22.250Z,1.67
2023-07-18T03:28:00.812Z,1.63
2023-07-18T03:30:28.244Z,1.42
2023-07-18T03:32:59.044Z,1.60
2023-07-18T03:35:29.350Z,1.75
2023-07-18T03:37:59.130Z,1.67
2023-07-18T03:40:26.438Z,1.25
2023-07-18T03:42:55.063Z,1.52
2023-07-18T03:45:22.504Z,1.90
2023-07-18T03:47:49.930Z,1.33
2023-07-18T03:50:18.593Z,1.33
2023-07-18T03:52:46.048Z,1.27
2023-07-18T03:55:13.475Z,2.00
2023-07-18T03:57:41.350Z,2.42
2023-07-18T04:00:19.671Z,1.92
2023-07-18T04:02:48.300Z,1.02
2023-07-18T04:05:16.817Z,1.35
2023-07-18T04:07:45.441Z,1.48
2023-07-18T04:10:20.142Z,1.42
2023-07-18T04:12:47.452Z,2.05
2023-07-18T04:15:16.199Z,1.55
2023-07-18T04:17:45.326Z,1.70
2023-07-18T04:20:14.540Z,1.60
2023-07-18T04:22:42.167Z,1.50
2023-07-18T04:25:09.805Z,1.95
2023-07-18T04:27:37.194Z,1.80
2023-07-18T04:30:05.078Z,1.38
2023-07-18T04:32:32.438Z,1.65
2023-07-18T04:34:59.700Z,1.55
2023-07-18T04:37:27.057Z,1.48
2023-07-18T04:40:02.656Z,2.20
2023-07-18T04:42:34.515Z,1.52
2023-07-18T04:45:02.034Z,1.60
2023-07-18T04:47:29.824Z,2.00
2023-07-18T04:50:00.489Z,1.75
2023-07-18T04:52:28.160Z,1.58
2023-07-18T04:54:55.487Z,1.63
2023-07-18T04:57:27.793Z,1.75
2023-07-18T04:59:55.157Z,1.33
2023-07-18T05:02:22.474Z,1.60
2023-07-18T05:04:49.765Z,1.30
2023-07-18T05:07:17.116Z,1.80
2023-07-18T05:09:47.325Z,2.47
2023-07-18T05:12:22.806Z,1.90
2023-07-18T05:15:13.008Z,1.65
2023-07-18T05:17:40.392Z,2.05
2023-07-18T05:20:34.825Z,1.58
2023-07-18T05:23:02.396Z,1.83
2023-07-18T05:25:29.806Z,1.85
2023-07-18T05:27:57.523Z,1.83
2023-07-18T05:30:24.809Z,1.48
2023-07-18T05:32:54.233Z,1.85
2023-07-18T05:35:22.092Z,1.80
2023-07-18T05:37:49.447Z,1.60
2023-07-18T05:40:21.789Z,2.05
2023-07-18T05:42:49.955Z,2.15
2023-07-18T05:45:17.554Z,1.77
2023-07-18T05:47:45.077Z,1.90
2023-07-18T05:50:13.183Z,1.48
2023-07-18T05:52:40.561Z,1.88
2023-07-18T05:55:08.948Z,1.92
2023-07-18T05:57:37.345Z,2.08
2023-07-18T06:00:13.357Z,1.65
2023-07-18T06:02:41.240Z,1.50
2023-07-18T06:05:09.084Z,2.03
2023-07-18T06:07:36.408Z,2.13
2023-07-18T06:10:04.593Z,1.58
2023-07-18T06:12:32.196Z,1.88
2023-07-18T06:14:59.694Z,1.90
2023-07-18T06:17:31.162Z,2.08
2023-07-18T06:19:58.474Z,2.30
2023-07-18T06:22:25.780Z,1.73
2023-07-18T06:24:53.139Z,1.63
2023-07-18T06:27:20.422Z,1.80
2023-07-18T06:29:47.925Z,2.08
2023-07-18T06:32:16.234Z,2.10
2023-07-18T06:34:44.491Z,1.80
2023-07-18T06:37:12.098Z,1.92
2023-07-18T06:39:39.838Z,1.95
2023-07-18T06:42:10.019Z,1.70
2023-07-18T06:44:37.858Z,1.60
2023-07-18T06:47:05.802Z,1.88
2023-07-18T06:49:34.163Z,1.70
2023-07-18T06:52:01.433Z,1.63
2023-07-18T06:54:28.783Z,1.52
2023-07-18T06:56:56.074Z,2.08
2023-07-18T06:59:25.528Z,2.40
2023-07-18T07:01:53.332Z,1.67
2023-07-18T07:04:20.940Z,1.38
2023-07-18T07:06:48.611Z,1.70
2023-07-18T07:09:16.067Z,1.70
2023-07-18T07:11:44.591Z,1.70
2023-07-18T07:16:40.697Z,1.60
2023-07-18T07:19:09.007Z,1.63
2023-07-18T07:21:40.822Z,1.70
2023-07-18T07:24:09.458Z,1.63
2023-07-18T07:29:08.284Z,2.08
2023-07-18T07:31:36.658Z,1.92
2023-07-18T07:34:04.012Z,1.40
2023-07-18T07:36:36.314Z,1.70
2023-07-18T07:39:04.509Z,1.98
2023-07-18T07:41:31.942Z,1.67
2023-07-18T07:43:59.192Z,1.50
2023-07-18T07:46:26.504Z,1.48
2023-07-18T07:48:53.880Z,1.30
2023-07-18T07:51:21.406Z,1.40
2023-07-18T07:53:48.998Z,1.33
2023-07-18T07:56:16.381Z,1.08
2023-07-18T07:58:47.271Z,1.35
2023-07-18T08:01:19.502Z,2.00
2023-07-18T08:03:47.175Z,1.27
2023-07-18T08:06:14.506Z,1.65
2023-07-18T08:08:41.788Z,1.45
2023-07-18T08:11:09.045Z,1.13
2023-07-18T08:13:36.378Z,1.45
2023-07-18T08:16:03.807Z,1.55
2023-07-18T08:18:31.127Z,1.60
2023-07-18T08:20:58.413Z,1.58
2023-07-18T08:23:25.693Z,1.23
2023-07-18T08:25:53.419Z,1.75
2023-07-18T08:28:20.763Z,1.42
2023-07-18T08:30:48.044Z,1.15
2023-07-18T08:33:16.516Z,1.50
2023-07-18T08:38:12.006Z,1.05
2023-07-18T08:40:44.817Z,1.70
2023-07-18T08:43:15.292Z,0.85
2023-07-18T08:45:42.646Z,1.23
2023-07-18T08:48:10.062Z,1.00
2023-07-18T08:50:40.687Z,1.25
2023-07-18T08:53:08.113Z,1.00
2023-07-18T08:55:37.644Z,1.08
2023-07-18T08:58:06.225Z,1.10
2023-07-18T09:00:33.532Z,1.05
2023-07-18T09:03:00.932Z,0.73
2023-07-18T09:05:38.558Z,1.02
2023-07-18T09:08:07.038Z,1.20
2023-07-18T09:13:03.494Z,1.20
2023-07-18T09:15:33.607Z,0.90
2023-07-18T09:18:04.090Z,0.98
2023-07-18T09:20:32.085Z,0.88
2023-07-18T09:23:06.456Z,1.13
2023-07-18T09:25:41.141Z,1.00
2023-07-18T09:28:13.197Z,0.80
2023-07-18T09:30:41.936Z,1.00
2023-07-18T09:35:38.085Z,1.13
2023-07-18T09:38:06.547Z,1.05
2023-07-18T09:43:02.767Z,0.88
2023-07-18T09:45:30.913Z,0.90
2023-07-18T09:47:58.832Z,0.85
2023-07-18T09:50:27.570Z,0.70
2023-07-18T09:52:59.768Z,1.10
2023-07-18T09:55:30.564Z,1.13
2023-07-18T09:58:00.464Z,0.77
2023-07-18T10:00:29.039Z,1.13
2023-07-18T10:02:56.680Z,0.95
2023-07-18T10:05:24.285Z,1.30
2023-07-18T10:07:52.228Z,0.75
2023-07-18T10:10:19.925Z,0.60
2023-07-18T10:12:56.599Z,0.88
2023-07-18T10:15:24.651Z,0.93
2023-07-18T10:17:52.093Z,0.90
2023-07-18T10:20:25.024Z,1.40
2023-07-18T10:23:00.323Z,2.17
2023-07-18T10:25:32.641Z,0.77
2023-07-18T10:28:01.648Z,1.30
2023-07-18T10:30:42.705Z,0.65
2023-07-18T10:33:10.380Z,0.73
2023-07-18T10:35:44.421Z,0.98
2023-07-18T10:38:15.001Z,1.00
2023-07-18T10:40:44.947Z,0.90
2023-07-18T10:43:17.443Z,0.77
2023-07-18T10:45:45.410Z,0.73
2023-07-18T10:48:18.267Z,0.85
2023-07-18T10:50:47.566Z,0.90
2023-07-18T10:53:19.664Z,0.80
2023-07-18T10:55:48.923Z,1.15
2023-07-18T10:58:21.070Z,1.20
2023-07-18T11:00:50.036Z,0.60
2023-07-18T11:03:28.710Z,0.80
2023-07-18T11:05:56.097Z,0.73
2023-07-18T11:08:28.326Z,0.80
2023-07-18T11:11:04.343Z,0.73
2023-07-18T11:13:34.048Z,0.90
2023-07-18T11:16:05.492Z,0.63
2023-07-18T11:18:37.366Z,0.60
2023-07-18T11:21:06.174Z,1.67
2023-07-18T11:23:35.210Z,0.70
2023-07-18T11:26:19.659Z,0.73
2023-07-18T11:28:50.834Z,0.80
2023-07-18T11:33:59.091Z,0.70
2023-07-18T11:36:34.641Z,0.55
2023-07-18T11:39:05.114Z,0.80
2023-07-18T11:41:36.941Z,0.75
2023-07-18T11:44:05.840Z,0.70
2023-07-18T11:46:46.454Z,0.98
2023-07-18T11:51:42.580Z,0.98
2023-07-18T11:54:10.149Z,0.80
2023-07-18T11:56:38.301Z,0.55
2023-07-18T11:59:06.521Z,0.70
2023-07-18T12:01:37.330Z,0.55
2023-07-18T12:04:13.759Z,0.60
2023-07-18T12:06:42.432Z,1.00
2023-07-18T12:09:09.768Z,0.70
2023-07-18T12:11:37.091Z,0.70
2023-07-18T12:14:07.540Z,0.80
2023-07-18T12:16:35.070Z,1.25
2023-07-18T12:19:02.405Z,0.70
2023-07-18T12:21:29.917Z,0.65
2023-07-18T12:23:57.296Z,0.70
2023-07-18T12:26:25.993Z,0.60
2023-07-18T12:28:55.289Z,0.90
2023-07-18T12:31:23.244Z,0.60
2023-07-18T12:33:50.911Z,0.57
2023-07-18T12:36:18.408Z,0.60
2023-07-18T12:38:45.904Z,0.70
2023-07-18T12:41:13.266Z,0.40
2023-07-18T12:43:40.582Z,0.65
2023-07-18T12:46:07.975Z,0.63
2023-07-18T12:48:35.487Z,0.63
2023-07-18T12:51:05.738Z,0.68
2023-07-18T12:53:33.592Z,0.70
2023-07-18T12:56:00.891Z,0.65
2023-07-18T12:58:28.469Z,0.65
2023-07-18T13:00:55.911Z,0.47
2023-07-18T13:03:23.294Z,0.70
2023-07-18T13:05:50.782Z,0.40
2023-07-18T13:08:18.070Z,0.60
2023-07-18T13:10:45.486Z,0.60
2023-07-18T13:13:12.877Z,0.70
2023-07-18T13:15:40.211Z,0.63
2023-07-18T13:18:09.636Z,0.50
2023-07-18T13:20:37.355Z,1.05
2023-07-18T13:23:04.742Z,0.60
2023-07-18T13:25:32.366Z,0.50
2023-07-18T13:27:59.837Z,0.45
2023-07-18T13:30:27.137Z,0.40
2023-07-18T13:32:54.531Z,0.40
2023-07-18T13:35:22.478Z,0.52
2023-07-18T13:37:49.788Z,0.50
2023-07-18T13:40:17.292Z,0.43
2023-07-18T13:42:44.642Z,0.60
2023-07-18T13:45:12.164Z,0.50
2023-07-18T13:47:39.520Z,0.50
2023-07-18T13:50:17.875Z,0.60
2023-07-18T13:52:47.055Z,0.55
2023-07-18T13:55:14.443Z,0.47
2023-07-18T13:57:41.832Z,0.50
2023-07-18T14:00:09.793Z,0.55
2023-07-18T14:02:45.161Z,0.65
2023-07-18T14:05:12.658Z,0.35
2023-07-18T14:07:40.070Z,0.52
2023-07-18T14:10:08.189Z,0.35
2023-07-18T14:15:03.995Z,0.50
2023-07-18T14:17:31.380Z,0.60
2023-07-18T14:19:59.757Z,0.30
2023-07-18T14:22:27.316Z,0.47
2023-07-18T14:24:54.679Z,0.60
2023-07-18T14:27:22.140Z,0.77
2023-07-18T14:29:49.479Z,0.50
2023-07-18T14:32:16.790Z,0.55
2023-07-18T14:34:44.142Z,0.40
2023-07-18T14:37:11.658Z,0.60
2023-07-18T14:39:40.269Z,0.63
2023-07-18T14:42:08.043Z,0.60
2023-07-18T14:44:38.494Z,0.52
2023-07-18T14:47:05.994Z,0.60
2023-07-18T14:49:33.363Z,0.47
2023-07-18T14:52:00.696Z,0.57
2023-07-18T14:54:27.998Z,0.40
2023-07-18T14:56:55.309Z,0.63
2023-07-18T14:59:22.642Z,0.43
2023-07-18T15:01:49.959Z,0.60
2023-07-18T15:04:17.356Z,0.50
2023-07-18T15:06:44.812Z,0.60
2023-07-18T15:09:12.115Z,0.70
2023-07-18T15:11:39.413Z,0.70
2023-07-18T15:14:06.807Z,0.45
2023-07-18T15:16:34.234Z,0.50
2023-07-18T15:19:01.889Z,0.68
2023-07-18T15:21:29.648Z,0.80
2023-07-18T15:23:57.478Z,0.60
2023-07-18T15:26:25.143Z,0.70
2023-07-18T15:28:52.454Z,0.43
2023-07-18T15:31:20.032Z,0.60
2023-07-18T15:33:47.515Z,0.63
2023-07-18T15:36:14.940Z,0.63
2023-07-18T15:38:44.074Z,0.60
2023-07-18T15:41:13.512Z,0.65
2023-07-18T15:43:43.224Z,0.40
2023-07-18T15:46:10.654Z,0.63
2023-07-18T15:48:39.228Z,0.63
2023-07-18T15:51:06.559Z,0.50
2023-07-18T15:53:34.221Z,0.50
2023-07-18T15:56:01.531Z,0.52
2023-07-18T15:58:29.076Z,0.80
2023-07-18T16:00:58.380Z,0.50
2023-07-18T16:03:25.962Z,0.50
2023-07-18T16:05:53.578Z,0.40
2023-07-18T16:08:21.247Z,0.40
2023-07-18T16:10:48.600Z,0.80
2023-07-18T16:13:16.344Z,0.70
2023-07-18T16:15:44.741Z,0.45
2023-07-18T16:18:12.218Z,0.57
2023-07-18T16:20:39.540Z,0.50
2023-07-18T16:23:06.929Z,0.60
2023-07-18T16:25:34.297Z,0.60
2023-07-18T16:28:01.879Z,0.60
2023-07-18T16:30:29.172Z,0.50
2023-07-18T16:32:56.854Z,0.60
2023-07-18T16:35:24.335Z,0.50
2023-07-18T16:37:51.684Z,0.52
2023-07-18T16:40:18.982Z,0.60
2023-07-18T16:42:46.635Z,0.80
2023-07-18T16:45:14.022Z,0.60
2023-07-18T16:47:41.390Z,0.70
2023-07-18T16:50:09.026Z,0.55
2023-07-18T16:52:36.382Z,0.70
2023-07-18T16:55:03.913Z,0.50
2023-07-18T16:57:31.718Z,0.50
2023-07-18T16:59:59.435Z,0.40
2023-07-18T17:02:27.186Z,0.60
2023-07-18T17:04:54.719Z,0.60
2023-07-18T17:07:22.278Z,0.50
2023-07-18T17:09:49.816Z,0.77
2023-07-18T17:12:17.450Z,0.60
2023-07-18T17:17:12.639Z,0.70
2023-07-18T17:22:28.382Z,0.60
2023-07-18T17:27:23.859Z,0.70
2023-07-18T17:29:51.449Z,0.65
2023-07-18T17:32:19.044Z,0.50
2023-07-18T17:34:47.234Z,0.40
2023-07-18T17:37:14.929Z,0.90
2023-07-18T17:39:43.444Z,0.68
2023-07-18T17:42:10.841Z,0.50
2023-07-18T17:44:38.360Z,0.45
2023-07-18T17:47:05.722Z,0.65
2023-07-18T17:49:33.580Z,0.50
2023-07-18T17:52:01.119Z,0.60
2023-07-18T17:54:29.738Z,0.70
2023-07-18T17:56:57.294Z,0.50
2023-07-18T17:59:24.702Z,0.60
2023-07-18T18:01:52.297Z,0.80
2023-07-18T18:04:19.998Z,0.80
2023-07-18T18:06:48.423Z,0.43
2023-07-18T18:09:17.333Z,0.60
2023-07-18T18:11:44.894Z,0.40
2023-07-18T18:14:12.515Z,0.40
2023-07-18T18:16:40.318Z,0.80
2023-07-18T18:19:08.152Z,0.77
2023-07-18T18:21:35.460Z,0.75
2023-07-18T18:24:05.331Z,0.70
2023-07-18T18:26:32.706Z,1.67
2023-07-18T18:29:00.522Z,1.20
2023-07-18T18:31:29.235Z,1.10
2023-07-18T18:34:00.815Z,0.60
2023-07-18T18:36:30.300Z,0.50
2023-07-18T18:41:27.645Z,0.50
2023-07-18T18:43:55.645Z,0.50
2023-07-18T18:46:24.374Z,0.60
2023-07-18T18:48:52.568Z,0.35
2023-07-18T18:53:48.149Z,0.30
2023-07-18T18:56:15.944Z,0.43
2023-07-18T18:58:44.111Z,0.50
2023-07-18T19:01:11.703Z,0.50
2023-07-18T19:03:39.184Z,0.50
2023-07-18T19:06:06.770Z,0.60
2023-07-18T19:08:34.331Z,0.40
2023-07-18T19:11:08.138Z,0.50
2023-07-18T19:13:36.523Z,0.40
2023-07-18T19:16:04.473Z,0.30
2023-07-18T19:18:31.804Z,0.60
2023-07-18T19:20:59.232Z,0.50
2023-07-18T19:23:26.636Z,0.40
2023-07-18T19:25:53.993Z,0.52
2023-07-18T19:28:21.418Z,0.55
2023-07-18T19:30:48.704Z,0.35
2023-07-18T19:33:16.101Z,0.47
2023-07-18T19:35:43.437Z,0.40
2023-07-18T19:38:10.911Z,0.38
2023-07-18T19:40:38.246Z,0.60
2023-07-18T19:43:05.549Z,0.52
2023-07-18T19:45:32.988Z,0.35
2023-07-18T19:48:00.327Z,0.47
2023-07-18T19:50:27.884Z,0.20
2023-07-18T19:52:55.208Z,0.43
2023-07-18T19:55:22.610Z,0.35
2023-07-18T19:57:49.998Z,0.32
2023-07-18T20:00:17.576Z,0.52
2023-07-18T20:02:45.012Z,0.50
2023-07-18T20:05:12.441Z,0.50
2023-07-18T20:07:40.727Z,0.43
2023-07-18T20:10:08.537Z,0.38
2023-07-18T20:12:35.862Z,0.43
2023-07-18T20:15:04.272Z,0.60
2023-07-18T20:17:31.616Z,0.50
2023-07-18T20:20:00.872Z,0.40
2023-07-18T20:22:28.314Z,0.47
2023-07-18T20:24:55.768Z,0.55
2023-07-18T20:27:23.071Z,0.40
2023-07-18T20:29:50.347Z,0.40
2023-07-18T20:32:17.693Z,0.30
2023-07-18T20:34:46.493Z,0.50
2023-07-18T20:37:22.105Z,0.63
2023-07-18T20:39:49.516Z,0.50
2023-07-18T20:42:16.982Z,0.47
2023-07-18T20:44:45.337Z,0.40
2023-07-18T20:47:12.682Z,0.50
2023-07-18T20:49:40.215Z,0.43
2023-07-18T20:52:07.845Z,0.65
2023-07-18T20:54:37.799Z,0.50
2023-07-18T20:57:05.637Z,0.70
2023-07-18T20:59:33.624Z,0.50
2023-07-18T21:02:04.869Z,0.50
2023-07-18T21:04:32.462Z,0.73
2023-07-18T21:07:00.460Z,0.50
2023-07-18T21:09:27.834Z,0.65
2023-07-18T21:11:55.773Z,0.52
2023-07-18T21:16:51.534Z,0.60
2023-07-18T21:19:20.029Z,0.70
2023-07-18T21:21:47.311Z,0.60
2023-07-18T21:24:15.499Z,0.47
2023-07-18T21:26:43.065Z,0.50
2023-07-18T21:29:11.036Z,0.50
2023-07-18T21:31:38.582Z,0.52
2023-07-18T21:34:05.896Z,0.60
2023-07-18T21:36:38.390Z,0.40
2023-07-18T21:39:05.701Z,0.32
2023-07-18T21:41:33.345Z,0.57
2023-07-18T21:44:02.774Z,0.70
2023-07-18T21:46:30.848Z,0.70
2023-07-18T21:48:58.268Z,0.60
2023-07-18T21:51:25.828Z,0.60
2023-07-18T21:53:53.511Z,0.40
2023-07-18T21:56:21.371Z,0.52
2023-07-18T21:58:49.410Z,0.52
2023-07-18T22:01:17.153Z,0.32
2023-07-18T22:03:44.672Z,0.60
2023-07-18T22:06:12.658Z,0.50
2023-07-18T22:08:40.148Z,0.57
2023-07-18T22:11:07.680Z,0.40
2023-07-18T22:13:35.797Z,0.40
2023-07-18T22:16:03.556Z,0.40
2023-07-18T22:18:34.031Z,0.40
2023-07-18T22:21:04.940Z,0.50
2023-07-18T22:23:32.755Z,0.40
2023-07-18T22:26:13.600Z,0.40
2023-07-18T22:28:46.130Z,0.50
2023-07-18T22:31:13.721Z,0.20
2023-07-18T22:33:42.316Z,0.30
2023-07-18T22:36:09.637Z,0.52
2023-07-18T22:38:37.003Z,0.32
2023-07-18T22:41:04.380Z,0.70
2023-07-18T22:43:31.666Z,0.40
2023-07-18T22:45:58.953Z,0.47
2023-07-18T22:48:26.292Z,0.82
2023-07-18T22:50:53.605Z,0.60
2023-07-18T22:53:21.037Z,0.82
2023-07-18T22:55:51.767Z,0.60
2023-07-18T22:58:19.164Z,0.40
2023-07-18T23:00:46.494Z,0.43
2023-07-18T23:03:14.591Z,0.38
2023-07-18T23:05:41.989Z,0.30
2023-07-18T23:08:09.285Z,0.70
2023-07-18T23:10:36.726Z,0.60
2023-07-18T23:13:04.046Z,0.50
2023-07-18T23:15:31.505Z,0.63
2023-07-18T23:17:59.031Z,0.52
2023-07-18T23:20:26.399Z,0.43
2023-07-18T23:22:53.696Z,0.50
2023-07-18T23:25:21.029Z,0.50
2023-07-18T23:27:48.276Z,0.82
2023-07-18T23:30:15.621Z,0.50
2023-07-18T23:32:42.999Z,0.60
2023-07-18T23:35:10.828Z,0.60
2023-07-18T23:37:38.130Z,0.63
2023-07-18T23:40:06.047Z,0.60
2023-07-18T23:42:33.355Z,0.65
2023-07-18T23:45:00.731Z,0.70
2023-07-18T23:47:28.076Z,0.93
2023-07-18T23:49:55.394Z,0.70
2023-07-18T23:52:22.698Z,0.80
2023-07-18T23:54:50.039Z,0.70
2023-07-18T23:57:17.599Z,0.80
2023-07-18T23:59:44.963Z,0.98
